Terminal Aerodrome Forecast
Issued by NWS Buffalo, NY

Home | Current Version | Previous Version | Text Only | Print | Product List | Glossary On
Versions: 1 2 3 4 5 6 7 8 9 10 11 12 13 14 15 16 17 18 19 20 21 22 23 24 25
000
FTUS41 KBUF 230522
TAFBUF
TAF
KBUF 230522Z 2306/2406 18011KT P6SM SCT250
     FM232000 16014G20KT P6SM BKN250
     FM232200 16015G22KT P6SM BKN140
     FM240100 16016G23KT 6SM -RA OVC070
     FM240200 16016G22KT 3SM RA OVC035
     FM240500 18015G31KT 3SM -RA OVC045=

USA.gov is the U.S. government's official web portal to all federal, state and local government web resources and services.